sensor_id;sensor_type;location;lat;lon;timestamp;P1;durP1;ratioP1;P2;durP2;ratioP2
40367;SDS011;26075;43.320;21.920;2024-01-27T00:02:16;89.30;;;49.83;;
40367;SDS011;26075;43.320;21.920;2024-01-27T00:07:17;77.47;;;46.97;;
40367;SDS011;26075;43.320;21.920;2024-01-27T00:12:18;64.05;;;40.55;;
40367;SDS011;26075;43.320;21.920;2024-01-27T00:17:19;65.97;;;39.03;;
40367;SDS011;26075;43.320;21.920;2024-01-27T00:22:25;65.15;;;39.42;;
40367;SDS011;26075;43.320;21.920;2024-01-27T00:27:26;50.28;;;29.80;;
40367;SDS011;26075;43.320;21.920;2024-01-27T00:32:27;48.63;;;28.95;;
40367;SDS011;26075;43.320;21.920;2024-01-27T00:37:28;49.03;;;28.60;;
40367;SDS011;26075;43.320;21.920;2024-01-27T00:42:29;46.72;;;27.67;;
40367;SDS011;26075;43.320;21.920;2024-01-27T00:47:30;50.95;;;31.55;;
40367;SDS011;26075;43.320;21.920;2024-01-27T00:52:31;68.10;;;36.38;;
40367;SDS011;26075;43.320;21.920;2024-01-27T00:57:32;61.35;;;34.95;;
40367;SDS011;26075;43.320;21.920;2024-01-27T01:02:34;49.30;;;30.00;;
40367;SDS011;26075;43.320;21.920;2024-01-27T01:07:35;57.47;;;30.15;;
40367;SDS011;26075;43.320;21.920;2024-01-27T01:12:36;56.63;;;33.08;;
40367;SDS011;26075;43.320;21.920;2024-01-27T01:17:37;54.78;;;28.50;;
40367;SDS011;26075;43.320;21.920;2024-01-27T01:22:38;51.03;;;28.50;;
40367;SDS011;26075;43.320;21.920;2024-01-27T01:27:40;42.72;;;25.88;;
40367;SDS011;26075;43.320;21.920;2024-01-27T01:32:41;45.10;;;25.13;;
40367;SDS011;26075;43.320;21.920;2024-01-27T01:37:42;40.10;;;22.88;;
40367;SDS011;26075;43.320;21.920;2024-01-27T01:42:51;40.55;;;23.92;;
40367;SDS011;26075;43.320;21.920;2024-01-27T01:47:53;38.00;;;23.00;;
40367;SDS011;26075;43.320;21.920;2024-01-27T01:52:54;39.05;;;25.63;;
40367;SDS011;26075;43.320;21.920;2024-01-27T01:57:55;42.28;;;26.80;;
40367;SDS011;26075;43.320;21.920;2024-01-27T02:02:56;46.42;;;27.35;;
40367;SDS011;26075;43.320;21.920;2024-01-27T02:08:02;45.88;;;27.88;;
40367;SDS011;26075;43.320;21.920;2024-01-27T02:13:04;42.10;;;25.83;;
40367;SDS011;26075;43.320;21.920;2024-01-27T02:18:18;51.00;;;32.63;;
40367;SDS011;26075;43.320;21.920;2024-01-27T02:23:20;63.38;;;38.08;;
40367;SDS011;26075;43.320;21.920;2024-01-27T02:28:21;60.63;;;36.80;;
40367;SDS011;26075;43.320;21.920;2024-01-27T02:33:23;59.67;;;35.30;;
40367;SDS011;26075;43.320;21.920;2024-01-27T02:38:24;72.43;;;41.88;;
40367;SDS011;26075;43.320;21.920;2024-01-27T02:43:25;79.63;;;48.15;;
40367;SDS011;26075;43.320;21.920;2024-01-27T02:48:26;85.88;;;48.03;;
40367;SDS011;26075;43.320;21.920;2024-01-27T02:53:27;84.55;;;51.40;;
40367;SDS011;26075;43.320;21.920;2024-01-27T02:58:29;76.88;;;48.10;;
40367;SDS011;26075;43.320;21.920;2024-01-27T03:03:30;78.47;;;45.10;;
40367;SDS011;26075;43.320;21.920;2024-01-27T03:08:31;75.78;;;42.45;;
40367;SDS011;26075;43.320;21.920;2024-01-27T03:13:32;67.85;;;38.78;;
40367;SDS011;26075;43.320;21.920;2024-01-27T03:18:33;58.35;;;36.80;;
40367;SDS011;26075;43.320;21.920;2024-01-27T03:23:34;62.45;;;37.60;;
40367;SDS011;26075;43.320;21.920;2024-01-27T03:28:36;54.25;;;32.85;;
40367;SDS011;26075;43.320;21.920;2024-01-27T03:33:37;44.97;;;28.67;;
40367;SDS011;26075;43.320;21.920;2024-01-27T03:38:38;41.67;;;25.67;;
40367;SDS011;26075;43.320;21.920;2024-01-27T03:43:39;45.67;;;28.45;;
40367;SDS011;26075;43.320;21.920;2024-01-27T03:48:43;50.67;;;30.23;;
40367;SDS011;26075;43.320;21.920;2024-01-27T03:53:44;37.67;;;26.48;;
40367;SDS011;26075;43.320;21.920;2024-01-27T03:58:45;42.45;;;27.70;;
40367;SDS011;26075;43.320;21.920;2024-01-27T04:03:46;45.63;;;29.90;;
40367;SDS011;26075;43.320;21.920;2024-01-27T04:08:57;47.47;;;28.35;;
40367;SDS011;26075;43.320;21.920;2024-01-27T04:13:58;48.90;;;30.52;;
40367;SDS011;26075;43.320;21.920;2024-01-27T04:18:59;48.15;;;29.58;;
40367;SDS011;26075;43.320;21.920;2024-01-27T04:24:00;46.13;;;29.90;;
40367;SDS011;26075;43.320;21.920;2024-01-27T04:29:02;50.40;;;31.52;;
40367;SDS011;26075;43.320;21.920;2024-01-27T04:34:03;46.60;;;29.63;;
40367;SDS011;26075;43.320;21.920;2024-01-27T04:39:04;45.03;;;28.00;;
40367;SDS011;26075;43.320;21.920;2024-01-27T04:44:05;50.22;;;31.70;;
40367;SDS011;26075;43.320;21.920;2024-01-27T04:49:06;40.13;;;24.80;;
40367;SDS011;26075;43.320;21.920;2024-01-27T04:54:08;32.92;;;19.63;;
40367;SDS011;26075;43.320;21.920;2024-01-27T04:59:09;31.33;;;22.10;;
40367;SDS011;26075;43.320;21.920;2024-01-27T05:04:10;30.55;;;19.42;;
40367;SDS011;26075;43.320;21.920;2024-01-27T05:09:12;28.23;;;17.73;;
40367;SDS011;26075;43.320;21.920;2024-01-27T05:14:13;25.48;;;16.23;;
40367;SDS011;26075;43.320;21.920;2024-01-27T05:19:14;34.05;;;19.42;;
40367;SDS011;26075;43.320;21.920;2024-01-27T05:24:19;28.25;;;17.73;;
40367;SDS011;26075;43.320;21.920;2024-01-27T05:29:20;27.98;;;17.67;;
40367;SDS011;26075;43.320;21.920;2024-01-27T05:34:21;28.58;;;18.23;;
40367;SDS011;26075;43.320;21.920;2024-01-27T05:39:28;37.03;;;20.20;;
40367;SDS011;26075;43.320;21.920;2024-01-27T05:44:29;31.10;;;19.45;;
40367;SDS011;26075;43.320;21.920;2024-01-27T05:49:31;38.00;;;24.60;;
40367;SDS011;26075;43.320;21.920;2024-01-27T05:54:32;43.28;;;27.38;;
40367;SDS011;26075;43.320;21.920;2024-01-27T05:59:33;40.38;;;29.35;;
40367;SDS011;26075;43.320;21.920;2024-01-27T06:04:34;49.95;;;31.80;;
40367;SDS011;26075;43.320;21.920;2024-01-27T06:09:36;49.17;;;29.50;;
40367;SDS011;26075;43.320;21.920;2024-01-27T06:14:38;46.75;;;31.02;;
40367;SDS011;26075;43.320;21.920;2024-01-27T06:19:39;46.10;;;31.23;;
40367;SDS011;26075;43.320;21.920;2024-01-27T06:24:43;43.65;;;31.83;;
40367;SDS011;26075;43.320;21.920;2024-01-27T06:29:44;48.53;;;30.77;;
40367;SDS011;26075;43.320;21.920;2024-01-27T06:34:45;48.80;;;31.17;;
40367;SDS011;26075;43.320;21.920;2024-01-27T06:39:46;39.60;;;26.35;;
40367;SDS011;26075;43.320;21.920;2024-01-27T06:44:47;47.80;;;29.40;;
40367;SDS011;26075;43.320;21.920;2024-01-27T06:49:48;49.85;;;30.58;;
40367;SDS011;26075;43.320;21.920;2024-01-27T06:54:49;39.80;;;26.35;;
40367;SDS011;26075;43.320;21.920;2024-01-27T06:59:51;36.13;;;23.98;;
40367;SDS011;26075;43.320;21.920;2024-01-27T07:04:53;34.58;;;22.77;;
40367;SDS011;26075;43.320;21.920;2024-01-27T07:09:59;34.30;;;23.75;;
40367;SDS011;26075;43.320;21.920;2024-01-27T07:15:00;65.38;;;41.35;;
40367;SDS011;26075;43.320;21.920;2024-01-27T07:20:02;54.22;;;35.88;;
40367;SDS011;26075;43.320;21.920;2024-01-27T07:25:03;59.72;;;34.90;;
40367;SDS011;26075;43.320;21.920;2024-01-27T07:30:05;42.45;;;27.33;;
40367;SDS011;26075;43.320;21.920;2024-01-27T07:35:08;43.47;;;26.33;;
40367;SDS011;26075;43.320;21.920;2024-01-27T07:40:10;35.53;;;23.17;;
40367;SDS011;26075;43.320;21.920;2024-01-27T07:45:11;16.17;;;10.90;;
40367;SDS011;26075;43.320;21.920;2024-01-27T07:50:15;13.20;;;8.38;;
40367;SDS011;26075;43.320;21.920;2024-01-27T07:55:16;14.00;;;7.03;;
40367;SDS011;26075;43.320;21.920;2024-01-27T08:00:20;17.48;;;8.52;;
40367;SDS011;26075;43.320;21.920;2024-01-27T08:05:21;10.50;;;7.25;;
40367;SDS011;26075;43.320;21.920;2024-01-27T08:10:34;7.65;;;4.85;;
40367;SDS011;26075;43.320;21.920;2024-01-27T08:15:35;8.07;;;5.50;;
40367;SDS011;26075;43.320;21.920;2024-01-27T08:20:37;6.60;;;3.30;;
40367;SDS011;26075;43.320;21.920;2024-01-27T08:25:38;6.32;;;3.83;;
40367;SDS011;26075;43.320;21.920;2024-01-27T08:30:48;7.15;;;3.90;;
40367;SDS011;26075;43.320;21.920;2024-01-27T08:35:49;7.35;;;3.13;;
40367;SDS011;26075;43.320;21.920;2024-01-27T08:41:03;8.40;;;4.68;;
40367;SDS011;26075;43.320;21.920;2024-01-27T08:46:04;6.90;;;3.30;;
40367;SDS011;26075;43.320;21.920;2024-01-27T08:51:10;8.70;;;3.00;;
40367;SDS011;26075;43.320;21.920;2024-01-27T08:56:15;14.87;;;8.63;;
40367;SDS011;26075;43.320;21.920;2024-01-27T09:01:17;9.25;;;5.78;;
40367;SDS011;26075;43.320;21.920;2024-01-27T09:06:24;7.32;;;3.30;;
40367;SDS011;26075;43.320;21.920;2024-01-27T09:11:27;7.32;;;4.13;;
40367;SDS011;26075;43.320;21.920;2024-01-27T09:16:30;5.97;;;3.60;;
40367;SDS011;26075;43.320;21.920;2024-01-27T09:27:07;13.77;;;5.63;;
40367;SDS011;26075;43.320;21.920;2024-01-27T09:37:33;5.75;;;2.78;;
40367;SDS011;26075;43.320;21.920;2024-01-27T09:48:04;5.90;;;3.28;;
40367;SDS011;26075;43.320;21.920;2024-01-27T09:53:05;6.03;;;2.60;;
40367;SDS011;26075;43.320;21.920;2024-01-27T09:58:09;20.13;;;10.10;;
40367;SDS011;26075;43.320;21.920;2024-01-27T10:03:10;8.70;;;3.70;;
40367;SDS011;26075;43.320;21.920;2024-01-27T10:19:28;8.38;;;3.22;;
40367;SDS011;26075;43.320;21.920;2024-01-27T10:24:31;5.53;;;3.22;;
40367;SDS011;26075;43.320;21.920;2024-01-27T10:29:33;5.50;;;2.35;;
40367;SDS011;26075;43.320;21.920;2024-01-27T10:34:44;5.60;;;2.55;;
40367;SDS011;26075;43.320;21.920;2024-01-27T10:39:46;6.05;;;3.17;;
40367;SDS011;26075;43.320;21.920;2024-01-27T10:44:50;5.47;;;2.60;;
40367;SDS011;26075;43.320;21.920;2024-01-27T10:49:52;8.82;;;3.95;;
40367;SDS011;26075;43.320;21.920;2024-01-27T10:54:56;8.50;;;2.70;;
40367;SDS011;26075;43.320;21.920;2024-01-27T11:00:06;8.43;;;3.45;;
40367;SDS011;26075;43.320;21.920;2024-01-27T11:05:10;6.50;;;3.08;;
40367;SDS011;26075;43.320;21.920;2024-01-27T11:16:05;7.40;;;3.22;;
40367;SDS011;26075;43.320;21.920;2024-01-27T11:21:07;8.77;;;5.15;;
40367;SDS011;26075;43.320;21.920;2024-01-27T11:26:08;7.13;;;3.13;;
40367;SDS011;26075;43.320;21.920;2024-01-27T11:31:12;7.53;;;3.35;;
40367;SDS011;26075;43.320;21.920;2024-01-27T11:36:25;6.30;;;3.50;;
40367;SDS011;26075;43.320;21.920;2024-01-27T11:47:05;6.80;;;3.65;;
40367;SDS011;26075;43.320;21.920;2024-01-27T11:52:14;11.30;;;4.63;;
40367;SDS011;26075;43.320;21.920;2024-01-27T11:57:15;7.53;;;3.15;;
40367;SDS011;26075;43.320;21.920;2024-01-27T12:02:18;7.82;;;3.55;;
40367;SDS011;26075;43.320;21.920;2024-01-27T12:12:48;6.88;;;2.88;;
40367;SDS011;26075;43.320;21.920;2024-01-27T12:17:52;8.68;;;3.20;;
40367;SDS011;26075;43.320;21.920;2024-01-27T12:23:05;10.98;;;2.95;;
40367;SDS011;26075;43.320;21.920;2024-01-27T12:33:49;7.00;;;2.88;;
40367;SDS011;26075;43.320;21.920;2024-01-27T12:43:57;18.60;;;5.78;;
40367;SDS011;26075;43.320;21.920;2024-01-27T12:48:58;8.27;;;3.13;;
40367;SDS011;26075;43.320;21.920;2024-01-27T12:54:02;15.15;;;3.35;;
40367;SDS011;26075;43.320;21.920;2024-01-27T12:59:03;9.80;;;3.78;;
40367;SDS011;26075;43.320;21.920;2024-01-27T13:04:06;12.18;;;4.72;;
40367;SDS011;26075;43.320;21.920;2024-01-27T13:09:12;9.18;;;4.10;;
40367;SDS011;26075;43.320;21.920;2024-01-27T13:14:14;8.77;;;3.53;;
40367;SDS011;26075;43.320;21.920;2024-01-27T13:19:16;7.10;;;3.95;;
40367;SDS011;26075;43.320;21.920;2024-01-27T13:24:17;8.82;;;3.80;;
40367;SDS011;26075;43.320;21.920;2024-01-27T13:29:20;8.02;;;2.88;;
40367;SDS011;26075;43.320;21.920;2024-01-27T13:34:31;21.90;;;6.75;;
40367;SDS011;26075;43.320;21.920;2024-01-27T13:39:44;7.80;;;3.00;;
40367;SDS011;26075;43.320;21.920;2024-01-27T13:44:45;16.70;;;5.57;;
40367;SDS011;26075;43.320;21.920;2024-01-27T13:49:49;10.43;;;4.50;;
40367;SDS011;26075;43.320;21.920;2024-01-27T13:54:50;8.90;;;2.58;;
40367;SDS011;26075;43.320;21.920;2024-01-27T13:59:54;14.25;;;3.72;;
40367;SDS011;26075;43.320;21.920;2024-01-27T14:04:55;12.05;;;4.40;;
40367;SDS011;26075;43.320;21.920;2024-01-27T14:09:56;8.82;;;3.67;;
40367;SDS011;26075;43.320;21.920;2024-01-27T14:15:04;8.50;;;3.70;;
40367;SDS011;26075;43.320;21.920;2024-01-27T14:20:08;6.25;;;3.05;;
40367;SDS011;26075;43.320;21.920;2024-01-27T14:25:10;13.05;;;4.15;;
40367;SDS011;26075;43.320;21.920;2024-01-27T14:30:11;7.78;;;3.72;;
40367;SDS011;26075;43.320;21.920;2024-01-27T14:35:13;9.27;;;4.93;;
40367;SDS011;26075;43.320;21.920;2024-01-27T14:40:15;23.80;;;8.52;;
40367;SDS011;26075;43.320;21.920;2024-01-27T14:45:16;8.93;;;3.72;;
40367;SDS011;26075;43.320;21.920;2024-01-27T14:50:17;12.88;;;3.78;;
40367;SDS011;26075;43.320;21.920;2024-01-27T15:01:04;11.15;;;4.93;;
40367;SDS011;26075;43.320;21.920;2024-01-27T15:11:43;10.63;;;4.32;;
40367;SDS011;26075;43.320;21.920;2024-01-27T15:16:53;15.10;;;4.93;;
40367;SDS011;26075;43.320;21.920;2024-01-27T15:21:57;11.35;;;4.40;;
40367;SDS011;26075;43.320;21.920;2024-01-27T15:26:58;12.77;;;4.15;;
40367;SDS011;26075;43.320;21.920;2024-01-27T15:31:59;14.25;;;5.68;;
40367;SDS011;26075;43.320;21.920;2024-01-27T15:37:00;10.77;;;3.95;;
40367;SDS011;26075;43.320;21.920;2024-01-27T15:42:01;13.50;;;5.90;;
40367;SDS011;26075;43.320;21.920;2024-01-27T15:47:04;16.13;;;7.55;;
40367;SDS011;26075;43.320;21.920;2024-01-27T15:52:09;23.15;;;8.27;;
40367;SDS011;26075;43.320;21.920;2024-01-27T15:57:11;19.52;;;7.53;;
40367;SDS011;26075;43.320;21.920;2024-01-27T16:02:12;11.95;;;6.60;;
40367;SDS011;26075;43.320;21.920;2024-01-27T16:07:14;18.02;;;8.07;;
40367;SDS011;26075;43.320;21.920;2024-01-27T16:12:15;17.10;;;8.15;;
40367;SDS011;26075;43.320;21.920;2024-01-27T16:23:13;18.27;;;7.40;;
40367;SDS011;26075;43.320;21.920;2024-01-27T16:28:14;10.90;;;4.70;;
40367;SDS011;26075;43.320;21.920;2024-01-27T16:33:15;12.93;;;6.10;;
40367;SDS011;26075;43.320;21.920;2024-01-27T16:38:18;13.98;;;5.65;;
40367;SDS011;26075;43.320;21.920;2024-01-27T16:43:20;17.48;;;6.40;;
40367;SDS011;26075;43.320;21.920;2024-01-27T16:48:21;21.67;;;9.30;;
40367;SDS011;26075;43.320;21.920;2024-01-27T16:53:22;26.10;;;13.35;;
40367;SDS011;26075;43.320;21.920;2024-01-27T16:58:23;26.80;;;15.25;;
40367;SDS011;26075;43.320;21.920;2024-01-27T17:03:24;28.90;;;16.35;;
40367;SDS011;26075;43.320;21.920;2024-01-27T17:08:25;32.53;;;17.40;;
40367;SDS011;26075;43.320;21.920;2024-01-27T17:13:26;34.28;;;18.10;;
40367;SDS011;26075;43.320;21.920;2024-01-27T17:18:29;35.97;;;17.77;;
40367;SDS011;26075;43.320;21.920;2024-01-27T17:23:31;19.05;;;12.20;;
40367;SDS011;26075;43.320;21.920;2024-01-27T17:28:32;12.38;;;7.00;;
40367;SDS011;26075;43.320;21.920;2024-01-27T17:33:33;14.38;;;6.20;;
40367;SDS011;26075;43.320;21.920;2024-01-27T17:38:34;12.10;;;6.63;;
40367;SDS011;26075;43.320;21.920;2024-01-27T17:43:35;15.15;;;6.55;;
40367;SDS011;26075;43.320;21.920;2024-01-27T17:48:36;19.67;;;10.10;;
40367;SDS011;26075;43.320;21.920;2024-01-27T17:53:38;18.63;;;9.52;;
40367;SDS011;26075;43.320;21.920;2024-01-27T17:58:39;22.95;;;9.38;;
40367;SDS011;26075;43.320;21.920;2024-01-27T18:03:40;18.67;;;10.00;;
40367;SDS011;26075;43.320;21.920;2024-01-27T18:08:41;19.73;;;10.73;;
40367;SDS011;26075;43.320;21.920;2024-01-27T18:13:43;23.85;;;13.85;;
40367;SDS011;26075;43.320;21.920;2024-01-27T18:18:47;26.88;;;12.80;;
40367;SDS011;26075;43.320;21.920;2024-01-27T18:23:48;24.52;;;11.95;;
40367;SDS011;26075;43.320;21.920;2024-01-27T18:28:49;19.05;;;10.65;;
40367;SDS011;26075;43.320;21.920;2024-01-27T18:33:50;15.07;;;8.68;;
40367;SDS011;26075;43.320;21.920;2024-01-27T18:38:51;20.98;;;10.23;;
40367;SDS011;26075;43.320;21.920;2024-01-27T18:43:56;14.60;;;8.15;;
40367;SDS011;26075;43.320;21.920;2024-01-27T18:48:58;15.10;;;9.13;;
40367;SDS011;26075;43.320;21.920;2024-01-27T18:53:59;24.60;;;9.50;;
40367;SDS011;26075;43.320;21.920;2024-01-27T18:59:00;14.90;;;8.27;;
40367;SDS011;26075;43.320;21.920;2024-01-27T19:04:02;11.15;;;7.18;;
40367;SDS011;26075;43.320;21.920;2024-01-27T19:09:03;16.83;;;8.93;;
40367;SDS011;26075;43.320;21.920;2024-01-27T19:14:06;13.68;;;7.93;;
40367;SDS011;26075;43.320;21.920;2024-01-27T19:19:07;15.50;;;8.55;;
40367;SDS011;26075;43.320;21.920;2024-01-27T19:24:08;17.10;;;8.40;;
40367;SDS011;26075;43.320;21.920;2024-01-27T19:29:20;18.55;;;6.50;;
40367;SDS011;26075;43.320;21.920;2024-01-27T19:34:22;17.15;;;8.77;;
40367;SDS011;26075;43.320;21.920;2024-01-27T19:45:02;12.57;;;6.78;;
40367;SDS011;26075;43.320;21.920;2024-01-27T19:50:07;19.63;;;8.60;;
40367;SDS011;26075;43.320;21.920;2024-01-27T19:55:09;17.67;;;8.00;;
40367;SDS011;26075;43.320;21.920;2024-01-27T20:00:11;14.95;;;6.13;;
40367;SDS011;26075;43.320;21.920;2024-01-27T20:05:14;15.52;;;6.38;;
40367;SDS011;26075;43.320;21.920;2024-01-27T20:10:16;17.85;;;7.97;;
40367;SDS011;26075;43.320;21.920;2024-01-27T20:15:17;18.55;;;8.75;;
40367;SDS011;26075;43.320;21.920;2024-01-27T20:20:18;18.42;;;9.00;;
40367;SDS011;26075;43.320;21.920;2024-01-27T20:25:19;18.70;;;9.63;;
40367;SDS011;26075;43.320;21.920;2024-01-27T20:30:23;14.13;;;7.15;;
40367;SDS011;26075;43.320;21.920;2024-01-27T20:35:24;14.52;;;6.70;;
40367;SDS011;26075;43.320;21.920;2024-01-27T20:40:29;13.52;;;6.20;;
40367;SDS011;26075;43.320;21.920;2024-01-27T20:45:30;11.32;;;5.72;;
40367;SDS011;26075;43.320;21.920;2024-01-27T20:56:09;12.27;;;4.40;;
40367;SDS011;26075;43.320;21.920;2024-01-27T21:01:10;10.80;;;4.95;;
40367;SDS011;26075;43.320;21.920;2024-01-27T21:06:12;12.77;;;5.53;;
40367;SDS011;26075;43.320;21.920;2024-01-27T21:11:13;12.50;;;4.90;;
40367;SDS011;26075;43.320;21.920;2024-01-27T21:16:30;12.70;;;5.38;;
40367;SDS011;26075;43.320;21.920;2024-01-27T21:21:31;16.30;;;7.22;;
40367;SDS011;26075;43.320;21.920;2024-01-27T21:37:31;17.30;;;9.35;;
40367;SDS011;26075;43.320;21.920;2024-01-27T21:48:06;8.07;;;3.78;;
40367;SDS011;26075;43.320;21.920;2024-01-27T21:58:37;20.38;;;9.02;;
40367;SDS011;26075;43.320;21.920;2024-01-27T22:09:12;13.10;;;5.47;;
40367;SDS011;26075;43.320;21.920;2024-01-27T22:14:15;17.35;;;8.23;;
40367;SDS011;26075;43.320;21.920;2024-01-27T22:19:16;13.75;;;6.05;;
40367;SDS011;26075;43.320;21.920;2024-01-27T22:24:17;15.43;;;6.78;;
40367;SDS011;26075;43.320;21.920;2024-01-27T22:29:18;15.45;;;7.25;;
40367;SDS011;26075;43.320;21.920;2024-01-27T22:34:19;14.82;;;6.72;;
40367;SDS011;26075;43.320;21.920;2024-01-27T22:39:21;18.15;;;8.93;;
40367;SDS011;26075;43.320;21.920;2024-01-27T22:44:22;15.20;;;6.90;;
40367;SDS011;26075;43.320;21.920;2024-01-27T22:49:23;12.93;;;5.28;;
40367;SDS011;26075;43.320;21.920;2024-01-27T22:54:24;11.98;;;4.47;;
40367;SDS011;26075;43.320;21.920;2024-01-27T22:59:25;11.98;;;4.97;;
40367;SDS011;26075;43.320;21.920;2024-01-27T23:04:43;12.32;;;4.45;;
40367;SDS011;26075;43.320;21.920;2024-01-27T23:09:44;12.50;;;5.40;;
40367;SDS011;26075;43.320;21.920;2024-01-27T23:14:45;10.85;;;4.40;;
40367;SDS011;26075;43.320;21.920;2024-01-27T23:19:46;13.35;;;4.78;;
40367;SDS011;26075;43.320;21.920;2024-01-27T23:24:49;15.07;;;5.97;;
40367;SDS011;26075;43.320;21.920;2024-01-27T23:29:50;11.82;;;4.65;;
40367;SDS011;26075;43.320;21.920;2024-01-27T23:34:52;12.43;;;5.57;;
40367;SDS011;26075;43.320;21.920;2024-01-27T23:39:53;13.25;;;6.70;;
40367;SDS011;26075;43.320;21.920;2024-01-27T23:44:54;16.77;;;6.38;;
40367;SDS011;26075;43.320;21.920;2024-01-27T23:55:33;10.70;;;5.50;;
